sensor_id;sensor_type;location;lat;lon;timestamp;P1;durP1;ratioP1;P2;durP2;ratioP2
20101;SDS011;10210;52.284;9.892;2024-03-22T00:01:47;23.37;;;12.50;;
20101;SDS011;10210;52.284;9.892;2024-03-22T00:04:13;22.80;;;12.77;;
20101;SDS011;10210;52.284;9.892;2024-03-22T00:06:43;22.20;;;12.43;;
20101;SDS011;10210;52.284;9.892;2024-03-22T00:09:11;23.27;;;13.43;;
20101;SDS011;10210;52.284;9.892;2024-03-22T00:11:39;24.10;;;13.87;;
20101;SDS011;10210;52.284;9.892;2024-03-22T00:14:07;22.30;;;13.17;;
20101;SDS011;10210;52.284;9.892;2024-03-22T00:16:34;22.80;;;13.17;;
20101;SDS011;10210;52.284;9.892;2024-03-22T00:19:00;24.53;;;14.70;;
20101;SDS011;10210;52.284;9.892;2024-03-22T00:21:27;23.33;;;13.97;;
20101;SDS011;10210;52.284;9.892;2024-03-22T00:23:54;23.27;;;14.10;;
20101;SDS011;10210;52.284;9.892;2024-03-22T00:26:21;25.60;;;14.50;;
20101;SDS011;10210;52.284;9.892;2024-03-22T00:28:47;25.73;;;15.10;;
20101;SDS011;10210;52.284;9.892;2024-03-22T00:31:14;27.20;;;15.87;;
20101;SDS011;10210;52.284;9.892;2024-03-22T00:33:41;25.37;;;15.43;;
20101;SDS011;10210;52.284;9.892;2024-03-22T00:36:07;25.87;;;15.47;;
20101;SDS011;10210;52.284;9.892;2024-03-22T00:38:33;25.87;;;15.40;;
20101;SDS011;10210;52.284;9.892;2024-03-22T00:40:59;26.60;;;16.17;;
20101;SDS011;10210;52.284;9.892;2024-03-22T00:43:26;26.90;;;15.47;;
20101;SDS011;10210;52.284;9.892;2024-03-22T00:45:52;28.47;;;16.13;;
20101;SDS011;10210;52.284;9.892;2024-03-22T00:48:18;28.00;;;16.30;;
20101;SDS011;10210;52.284;9.892;2024-03-22T00:50:44;29.33;;;16.17;;
20101;SDS011;10210;52.284;9.892;2024-03-22T00:53:10;27.83;;;16.13;;
20101;SDS011;10210;52.284;9.892;2024-03-22T00:55:36;28.03;;;16.80;;
20101;SDS011;10210;52.284;9.892;2024-03-22T00:58:02;26.97;;;15.93;;
20101;SDS011;10210;52.284;9.892;2024-03-22T01:00:28;28.43;;;17.67;;
20101;SDS011;10210;52.284;9.892;2024-03-22T01:02:55;31.03;;;18.13;;
20101;SDS011;10210;52.284;9.892;2024-03-22T01:05:21;29.93;;;18.70;;
20101;SDS011;10210;52.284;9.892;2024-03-22T01:07:47;29.43;;;17.83;;
20101;SDS011;10210;52.284;9.892;2024-03-22T01:10:13;31.03;;;19.20;;
20101;SDS011;10210;52.284;9.892;2024-03-22T01:12:39;33.13;;;19.67;;
20101;SDS011;10210;52.284;9.892;2024-03-22T01:15:07;32.80;;;21.10;;
20101;SDS011;10210;52.284;9.892;2024-03-22T01:17:33;36.07;;;21.17;;
20101;SDS011;10210;52.284;9.892;2024-03-22T01:20:00;34.20;;;22.23;;
20101;SDS011;10210;52.284;9.892;2024-03-22T01:22:26;36.40;;;22.97;;
20101;SDS011;10210;52.284;9.892;2024-03-22T01:24:52;34.97;;;22.57;;
20101;SDS011;10210;52.284;9.892;2024-03-22T01:27:18;37.20;;;22.73;;
20101;SDS011;10210;52.284;9.892;2024-03-22T01:29:46;42.23;;;25.30;;
20101;SDS011;10210;52.284;9.892;2024-03-22T01:32:12;39.57;;;24.83;;
20101;SDS011;10210;52.284;9.892;2024-03-22T01:34:38;41.27;;;25.90;;
20101;SDS011;10210;52.284;9.892;2024-03-22T01:37:04;38.47;;;25.73;;
20101;SDS011;10210;52.284;9.892;2024-03-22T01:39:31;39.47;;;24.90;;
20101;SDS011;10210;52.284;9.892;2024-03-22T01:41:57;41.57;;;26.47;;
20101;SDS011;10210;52.284;9.892;2024-03-22T01:44:29;42.60;;;26.63;;
20101;SDS011;10210;52.284;9.892;2024-03-22T01:46:57;38.83;;;25.00;;
20101;SDS011;10210;52.284;9.892;2024-03-22T01:49:26;40.27;;;25.93;;
20101;SDS011;10210;52.284;9.892;2024-03-22T01:51:53;47.07;;;27.90;;
20101;SDS011;10210;52.284;9.892;2024-03-22T01:54:20;45.50;;;28.40;;
20101;SDS011;10210;52.284;9.892;2024-03-22T01:56:46;44.27;;;27.23;;
20101;SDS011;10210;52.284;9.892;2024-03-22T01:59:13;41.80;;;26.80;;
20101;SDS011;10210;52.284;9.892;2024-03-22T02:01:39;46.93;;;28.73;;
20101;SDS011;10210;52.284;9.892;2024-03-22T02:04:06;45.80;;;29.17;;
20101;SDS011;10210;52.284;9.892;2024-03-22T02:06:32;41.37;;;26.20;;
20101;SDS011;10210;52.284;9.892;2024-03-22T02:08:59;39.97;;;25.77;;
20101;SDS011;10210;52.284;9.892;2024-03-22T02:11:26;39.17;;;25.33;;
20101;SDS011;10210;52.284;9.892;2024-03-22T02:13:53;43.57;;;26.30;;
20101;SDS011;10210;52.284;9.892;2024-03-22T02:16:19;40.60;;;26.10;;
20101;SDS011;10210;52.284;9.892;2024-03-22T02:18:45;45.03;;;27.87;;
20101;SDS011;10210;52.284;9.892;2024-03-22T02:21:11;46.87;;;27.93;;
20101;SDS011;10210;52.284;9.892;2024-03-22T02:23:38;42.37;;;26.77;;
20101;SDS011;10210;52.284;9.892;2024-03-22T02:26:06;45.03;;;27.83;;
20101;SDS011;10210;52.284;9.892;2024-03-22T02:28:33;43.97;;;27.40;;
20101;SDS011;10210;52.284;9.892;2024-03-22T02:31:00;40.40;;;25.53;;
20101;SDS011;10210;52.284;9.892;2024-03-22T02:33:28;45.53;;;27.30;;
20101;SDS011;10210;52.284;9.892;2024-03-22T02:35:54;45.27;;;27.90;;
20101;SDS011;10210;52.284;9.892;2024-03-22T02:38:21;48.27;;;28.83;;
20101;SDS011;10210;52.284;9.892;2024-03-22T02:40:48;47.50;;;28.30;;
20101;SDS011;10210;52.284;9.892;2024-03-22T02:43:15;44.90;;;28.43;;
20101;SDS011;10210;52.284;9.892;2024-03-22T02:45:43;44.37;;;27.43;;
20101;SDS011;10210;52.284;9.892;2024-03-22T02:48:11;43.43;;;27.37;;
20101;SDS011;10210;52.284;9.892;2024-03-22T02:50:37;44.83;;;27.77;;
20101;SDS011;10210;52.284;9.892;2024-03-22T02:53:03;43.00;;;27.37;;
20101;SDS011;10210;52.284;9.892;2024-03-22T02:55:30;44.17;;;27.20;;
20101;SDS011;10210;52.284;9.892;2024-03-22T02:58:02;47.40;;;29.10;;
20101;SDS011;10210;52.284;9.892;2024-03-22T03:00:28;42.33;;;26.37;;
20101;SDS011;10210;52.284;9.892;2024-03-22T03:02:54;42.90;;;26.83;;
20101;SDS011;10210;52.284;9.892;2024-03-22T03:05:20;46.53;;;28.43;;
20101;SDS011;10210;52.284;9.892;2024-03-22T03:07:48;42.10;;;26.43;;
20101;SDS011;10210;52.284;9.892;2024-03-22T03:10:15;42.70;;;25.60;;
20101;SDS011;10210;52.284;9.892;2024-03-22T03:12:41;42.67;;;25.73;;
20101;SDS011;10210;52.284;9.892;2024-03-22T03:15:07;39.07;;;23.70;;
20101;SDS011;10210;52.284;9.892;2024-03-22T03:17:34;41.87;;;24.57;;
20101;SDS011;10210;52.284;9.892;2024-03-22T03:20:00;42.63;;;25.40;;
20101;SDS011;10210;52.284;9.892;2024-03-22T03:22:26;43.57;;;26.70;;
20101;SDS011;10210;52.284;9.892;2024-03-22T03:24:52;40.67;;;26.00;;
20101;SDS011;10210;52.284;9.892;2024-03-22T03:27:18;43.83;;;25.20;;
20101;SDS011;10210;52.284;9.892;2024-03-22T03:29:44;42.43;;;25.77;;
20101;SDS011;10210;52.284;9.892;2024-03-22T03:32:10;45.63;;;27.83;;
20101;SDS011;10210;52.284;9.892;2024-03-22T03:34:36;42.90;;;26.10;;
20101;SDS011;10210;52.284;9.892;2024-03-22T03:37:02;43.33;;;27.40;;
20101;SDS011;10210;52.284;9.892;2024-03-22T03:39:28;45.47;;;26.80;;
20101;SDS011;10210;52.284;9.892;2024-03-22T03:41:54;42.53;;;25.43;;
20101;SDS011;10210;52.284;9.892;2024-03-22T03:44:20;46.53;;;26.53;;
20101;SDS011;10210;52.284;9.892;2024-03-22T03:46:47;43.90;;;26.67;;
20101;SDS011;10210;52.284;9.892;2024-03-22T03:49:13;43.43;;;26.30;;
20101;SDS011;10210;52.284;9.892;2024-03-22T03:51:39;48.13;;;26.97;;
20101;SDS011;10210;52.284;9.892;2024-03-22T03:54:06;43.17;;;26.33;;
20101;SDS011;10210;52.284;9.892;2024-03-22T03:56:32;52.57;;;26.97;;
20101;SDS011;10210;52.284;9.892;2024-03-22T03:58:58;42.93;;;25.33;;
20101;SDS011;10210;52.284;9.892;2024-03-22T04:01:24;41.43;;;24.80;;
20101;SDS011;10210;52.284;9.892;2024-03-22T04:03:50;40.67;;;24.33;;
20101;SDS011;10210;52.284;9.892;2024-03-22T04:06:16;39.83;;;24.47;;
20101;SDS011;10210;52.284;9.892;2024-03-22T04:08:42;42.50;;;25.00;;
20101;SDS011;10210;52.284;9.892;2024-03-22T04:11:09;42.40;;;24.03;;
20101;SDS011;10210;52.284;9.892;2024-03-22T04:13:36;41.37;;;24.83;;
20101;SDS011;10210;52.284;9.892;2024-03-22T04:16:02;38.20;;;23.13;;
20101;SDS011;10210;52.284;9.892;2024-03-22T04:18:28;42.87;;;24.87;;
20101;SDS011;10210;52.284;9.892;2024-03-22T04:20:55;39.87;;;23.87;;
20101;SDS011;10210;52.284;9.892;2024-03-22T04:23:22;42.10;;;24.13;;
20101;SDS011;10210;52.284;9.892;2024-03-22T04:25:55;39.30;;;24.20;;
20101;SDS011;10210;52.284;9.892;2024-03-22T04:28:23;41.60;;;25.60;;
20101;SDS011;10210;52.284;9.892;2024-03-22T04:33:29;37.23;;;22.70;;
20101;SDS011;10210;52.284;9.892;2024-03-22T04:35:57;38.53;;;22.70;;
20101;SDS011;10210;52.284;9.892;2024-03-22T04:38:24;37.57;;;22.53;;
20101;SDS011;10210;52.284;9.892;2024-03-22T04:40:53;41.17;;;24.37;;
20101;SDS011;10210;52.284;9.892;2024-03-22T04:43:20;38.13;;;22.67;;
20101;SDS011;10210;52.284;9.892;2024-03-22T04:45:47;38.50;;;22.60;;
20101;SDS011;10210;52.284;9.892;2024-03-22T04:48:14;39.20;;;22.90;;
20101;SDS011;10210;52.284;9.892;2024-03-22T04:50:42;37.13;;;21.73;;
20101;SDS011;10210;52.284;9.892;2024-03-22T04:53:08;40.13;;;22.80;;
20101;SDS011;10210;52.284;9.892;2024-03-22T04:55:34;37.60;;;21.97;;
20101;SDS011;10210;52.284;9.892;2024-03-22T04:58:00;37.17;;;21.27;;
20101;SDS011;10210;52.284;9.892;2024-03-22T05:00:27;41.13;;;23.93;;
20101;SDS011;10210;52.284;9.892;2024-03-22T05:02:53;40.80;;;23.47;;
20101;SDS011;10210;52.284;9.892;2024-03-22T05:05:20;37.40;;;21.83;;
20101;SDS011;10210;52.284;9.892;2024-03-22T05:07:46;37.97;;;21.47;;
20101;SDS011;10210;52.284;9.892;2024-03-22T05:10:15;38.90;;;21.93;;
20101;SDS011;10210;52.284;9.892;2024-03-22T05:12:41;41.00;;;22.87;;
20101;SDS011;10210;52.284;9.892;2024-03-22T05:15:08;41.87;;;23.67;;
20101;SDS011;10210;52.284;9.892;2024-03-22T05:17:34;36.90;;;20.50;;
20101;SDS011;10210;52.284;9.892;2024-03-22T05:20:00;38.57;;;20.50;;
20101;SDS011;10210;52.284;9.892;2024-03-22T05:22:27;38.90;;;21.43;;
20101;SDS011;10210;52.284;9.892;2024-03-22T05:24:53;35.07;;;20.30;;
20101;SDS011;10210;52.284;9.892;2024-03-22T05:27:19;34.30;;;19.03;;
20101;SDS011;10210;52.284;9.892;2024-03-22T05:29:45;34.80;;;19.80;;
20101;SDS011;10210;52.284;9.892;2024-03-22T05:32:11;35.73;;;19.47;;
20101;SDS011;10210;52.284;9.892;2024-03-22T05:34:37;35.60;;;19.80;;
20101;SDS011;10210;52.284;9.892;2024-03-22T05:37:03;37.37;;;20.33;;
20101;SDS011;10210;52.284;9.892;2024-03-22T05:39:30;36.70;;;21.97;;
20101;SDS011;10210;52.284;9.892;2024-03-22T05:41:56;36.47;;;20.07;;
20101;SDS011;10210;52.284;9.892;2024-03-22T05:44:22;36.30;;;20.03;;
20101;SDS011;10210;52.284;9.892;2024-03-22T05:46:48;34.83;;;20.47;;
20101;SDS011;10210;52.284;9.892;2024-03-22T05:49:14;36.17;;;21.00;;
20101;SDS011;10210;52.284;9.892;2024-03-22T05:51:40;36.90;;;21.53;;
20101;SDS011;10210;52.284;9.892;2024-03-22T05:54:07;36.20;;;20.57;;
20101;SDS011;10210;52.284;9.892;2024-03-22T05:56:33;37.77;;;20.90;;
20101;SDS011;10210;52.284;9.892;2024-03-22T05:58:59;34.03;;;19.57;;
20101;SDS011;10210;52.284;9.892;2024-03-22T06:01:25;35.53;;;18.73;;
20101;SDS011;10210;52.284;9.892;2024-03-22T06:03:51;34.90;;;19.70;;
20101;SDS011;10210;52.284;9.892;2024-03-22T06:06:17;36.63;;;19.70;;
20101;SDS011;10210;52.284;9.892;2024-03-22T06:08:44;36.80;;;20.47;;
20101;SDS011;10210;52.284;9.892;2024-03-22T06:11:10;36.33;;;20.80;;
20101;SDS011;10210;52.284;9.892;2024-03-22T06:13:36;38.27;;;20.37;;
20101;SDS011;10210;52.284;9.892;2024-03-22T06:16:02;39.77;;;20.87;;
20101;SDS011;10210;52.284;9.892;2024-03-22T06:18:29;36.90;;;20.33;;
20101;SDS011;10210;52.284;9.892;2024-03-22T06:20:55;34.90;;;20.03;;
20101;SDS011;10210;52.284;9.892;2024-03-22T06:23:21;33.97;;;19.57;;
20101;SDS011;10210;52.284;9.892;2024-03-22T06:25:54;36.27;;;19.63;;
20101;SDS011;10210;52.284;9.892;2024-03-22T06:28:21;34.50;;;19.67;;
20101;SDS011;10210;52.284;9.892;2024-03-22T06:30:47;36.07;;;20.30;;
20101;SDS011;10210;52.284;9.892;2024-03-22T06:33:13;35.30;;;19.40;;
20101;SDS011;10210;52.284;9.892;2024-03-22T06:35:42;34.43;;;19.33;;
20101;SDS011;10210;52.284;9.892;2024-03-22T06:38:08;32.47;;;18.00;;
20101;SDS011;10210;52.284;9.892;2024-03-22T06:40:35;36.10;;;19.03;;
20101;SDS011;10210;52.284;9.892;2024-03-22T06:43:01;34.60;;;19.10;;
20101;SDS011;10210;52.284;9.892;2024-03-22T06:45:27;32.70;;;18.30;;
20101;SDS011;10210;52.284;9.892;2024-03-22T06:47:54;33.37;;;19.50;;
20101;SDS011;10210;52.284;9.892;2024-03-22T06:50:20;32.03;;;17.70;;
20101;SDS011;10210;52.284;9.892;2024-03-22T06:52:49;30.90;;;17.80;;
20101;SDS011;10210;52.284;9.892;2024-03-22T06:55:18;32.80;;;18.73;;
20101;SDS011;10210;52.284;9.892;2024-03-22T06:57:47;33.37;;;19.03;;
20101;SDS011;10210;52.284;9.892;2024-03-22T07:00:15;33.40;;;19.00;;
20101;SDS011;10210;52.284;9.892;2024-03-22T07:02:41;34.50;;;19.67;;
20101;SDS011;10210;52.284;9.892;2024-03-22T07:05:08;32.40;;;18.10;;
20101;SDS011;10210;52.284;9.892;2024-03-22T07:07:35;33.40;;;17.93;;
20101;SDS011;10210;52.284;9.892;2024-03-22T07:10:02;33.80;;;19.03;;
20101;SDS011;10210;52.284;9.892;2024-03-22T07:12:30;30.93;;;16.77;;
20101;SDS011;10210;52.284;9.892;2024-03-22T07:15:00;34.77;;;19.33;;
20101;SDS011;10210;52.284;9.892;2024-03-22T07:17:27;33.20;;;17.20;;
20101;SDS011;10210;52.284;9.892;2024-03-22T07:19:53;31.30;;;17.63;;
20101;SDS011;10210;52.284;9.892;2024-03-22T07:22:21;31.83;;;17.77;;
20101;SDS011;10210;52.284;9.892;2024-03-22T07:24:47;31.93;;;17.67;;
20101;SDS011;10210;52.284;9.892;2024-03-22T07:27:14;31.23;;;17.37;;
20101;SDS011;10210;52.284;9.892;2024-03-22T07:29:41;31.47;;;17.43;;
20101;SDS011;10210;52.284;9.892;2024-03-22T07:32:07;28.97;;;16.50;;
20101;SDS011;10210;52.284;9.892;2024-03-22T07:34:33;33.33;;;17.00;;
20101;SDS011;10210;52.284;9.892;2024-03-22T07:36:59;32.00;;;17.70;;
20101;SDS011;10210;52.284;9.892;2024-03-22T07:39:25;31.83;;;17.63;;
20101;SDS011;10210;52.284;9.892;2024-03-22T07:41:52;35.07;;;18.17;;
20101;SDS011;10210;52.284;9.892;2024-03-22T07:44:18;32.27;;;18.03;;
20101;SDS011;10210;52.284;9.892;2024-03-22T07:46:49;28.97;;;16.77;;
20101;SDS011;10210;52.284;9.892;2024-03-22T07:49:15;32.00;;;17.57;;
20101;SDS011;10210;52.284;9.892;2024-03-22T07:51:41;31.70;;;17.13;;
20101;SDS011;10210;52.284;9.892;2024-03-22T07:54:07;31.37;;;17.20;;
20101;SDS011;10210;52.284;9.892;2024-03-22T07:56:33;31.37;;;17.60;;
20101;SDS011;10210;52.284;9.892;2024-03-22T07:58:59;27.23;;;16.37;;
20101;SDS011;10210;52.284;9.892;2024-03-22T08:01:25;31.83;;;17.23;;
20101;SDS011;10210;52.284;9.892;2024-03-22T08:03:52;29.50;;;16.90;;
20101;SDS011;10210;52.284;9.892;2024-03-22T08:06:18;29.67;;;17.53;;
20101;SDS011;10210;52.284;9.892;2024-03-22T08:08:45;29.47;;;16.43;;
20101;SDS011;10210;52.284;9.892;2024-03-22T08:11:11;29.67;;;16.53;;
20101;SDS011;10210;52.284;9.892;2024-03-22T08:13:37;33.00;;;17.43;;
20101;SDS011;10210;52.284;9.892;2024-03-22T08:16:03;32.20;;;17.57;;
20101;SDS011;10210;52.284;9.892;2024-03-22T08:18:30;29.07;;;16.50;;
20101;SDS011;10210;52.284;9.892;2024-03-22T08:20:57;31.97;;;16.40;;
20101;SDS011;10210;52.284;9.892;2024-03-22T08:23:24;32.87;;;16.87;;
20101;SDS011;10210;52.284;9.892;2024-03-22T08:25:50;31.33;;;16.57;;
20101;SDS011;10210;52.284;9.892;2024-03-22T08:28:16;30.77;;;16.43;;
20101;SDS011;10210;52.284;9.892;2024-03-22T08:30:43;30.97;;;16.07;;
20101;SDS011;10210;52.284;9.892;2024-03-22T08:33:10;29.43;;;16.37;;
20101;SDS011;10210;52.284;9.892;2024-03-22T08:35:39;30.53;;;16.50;;
20101;SDS011;10210;52.284;9.892;2024-03-22T08:38:06;28.27;;;15.90;;
20101;SDS011;10210;52.284;9.892;2024-03-22T08:40:36;26.50;;;15.27;;
20101;SDS011;10210;52.284;9.892;2024-03-22T08:43:03;28.73;;;15.23;;
20101;SDS011;10210;52.284;9.892;2024-03-22T08:45:30;28.27;;;15.43;;
20101;SDS011;10210;52.284;9.892;2024-03-22T08:47:56;29.40;;;16.13;;
20101;SDS011;10210;52.284;9.892;2024-03-22T08:50:22;29.60;;;15.47;;
20101;SDS011;10210;52.284;9.892;2024-03-22T08:52:48;25.37;;;15.30;;
20101;SDS011;10210;52.284;9.892;2024-03-22T08:55:14;27.43;;;15.63;;
20101;SDS011;10210;52.284;9.892;2024-03-22T08:57:41;30.63;;;16.30;;
20101;SDS011;10210;52.284;9.892;2024-03-22T09:00:07;26.97;;;14.67;;
20101;SDS011;10210;52.284;9.892;2024-03-22T09:02:34;25.83;;;13.97;;
20101;SDS011;10210;52.284;9.892;2024-03-22T09:05:00;28.30;;;14.87;;
20101;SDS011;10210;52.284;9.892;2024-03-22T09:07:26;30.97;;;16.13;;
20101;SDS011;10210;52.284;9.892;2024-03-22T09:09:52;30.50;;;15.37;;
20101;SDS011;10210;52.284;9.892;2024-03-22T09:12:19;28.17;;;15.10;;
20101;SDS011;10210;52.284;9.892;2024-03-22T09:14:45;27.00;;;14.73;;
20101;SDS011;10210;52.284;9.892;2024-03-22T09:17:11;25.90;;;13.60;;
20101;SDS011;10210;52.284;9.892;2024-03-22T09:19:37;26.80;;;14.57;;
20101;SDS011;10210;52.284;9.892;2024-03-22T09:22:03;27.93;;;14.37;;
20101;SDS011;10210;52.284;9.892;2024-03-22T09:24:29;23.77;;;12.67;;
20101;SDS011;10210;52.284;9.892;2024-03-22T09:26:56;25.87;;;13.10;;
20101;SDS011;10210;52.284;9.892;2024-03-22T09:29:23;23.47;;;13.37;;
20101;SDS011;10210;52.284;9.892;2024-03-22T09:31:49;24.87;;;14.53;;
20101;SDS011;10210;52.284;9.892;2024-03-22T09:34:15;25.13;;;13.70;;
20101;SDS011;10210;52.284;9.892;2024-03-22T09:36:42;25.77;;;12.83;;
20101;SDS011;10210;52.284;9.892;2024-03-22T09:39:09;23.70;;;12.83;;
20101;SDS011;10210;52.284;9.892;2024-03-22T09:41:37;25.50;;;13.93;;
20101;SDS011;10210;52.284;9.892;2024-03-22T09:44:07;28.70;;;15.67;;
20101;SDS011;10210;52.284;9.892;2024-03-22T09:46:38;27.27;;;13.97;;
20101;SDS011;10210;52.284;9.892;2024-03-22T09:49:08;22.87;;;12.60;;
20101;SDS011;10210;52.284;9.892;2024-03-22T09:51:39;26.87;;;14.17;;
20101;SDS011;10210;52.284;9.892;2024-03-22T09:54:08;23.53;;;12.20;;
20101;SDS011;10210;52.284;9.892;2024-03-22T09:56:35;29.33;;;16.47;;
20101;SDS011;10210;52.284;9.892;2024-03-22T09:59:03;26.43;;;13.67;;
20101;SDS011;10210;52.284;9.892;2024-03-22T10:01:29;23.40;;;12.67;;
20101;SDS011;10210;52.284;9.892;2024-03-22T10:03:56;20.83;;;11.80;;
20101;SDS011;10210;52.284;9.892;2024-03-22T10:06:22;20.47;;;10.67;;
20101;SDS011;10210;52.284;9.892;2024-03-22T10:08:48;20.90;;;11.67;;
20101;SDS011;10210;52.284;9.892;2024-03-22T10:11:15;21.67;;;12.37;;
20101;SDS011;10210;52.284;9.892;2024-03-22T10:13:41;21.90;;;12.63;;
20101;SDS011;10210;52.284;9.892;2024-03-22T10:16:07;23.17;;;13.17;;
20101;SDS011;10210;52.284;9.892;2024-03-22T10:18:34;21.87;;;12.77;;
20101;SDS011;10210;52.284;9.892;2024-03-22T10:21:03;24.17;;;12.80;;
20101;SDS011;10210;52.284;9.892;2024-03-22T10:23:30;24.33;;;12.50;;
20101;SDS011;10210;52.284;9.892;2024-03-22T10:25:57;21.47;;;11.80;;
20101;SDS011;10210;52.284;9.892;2024-03-22T10:28:24;24.43;;;12.97;;
20101;SDS011;10210;52.284;9.892;2024-03-22T10:30:51;20.20;;;11.87;;
20101;SDS011;10210;52.284;9.892;2024-03-22T10:33:20;20.83;;;11.70;;
20101;SDS011;10210;52.284;9.892;2024-03-22T10:35:52;21.27;;;11.63;;
20101;SDS011;10210;52.284;9.892;2024-03-22T10:38:21;20.47;;;11.07;;
20101;SDS011;10210;52.284;9.892;2024-03-22T10:40:48;20.10;;;10.80;;
20101;SDS011;10210;52.284;9.892;2024-03-22T10:43:14;21.03;;;10.97;;
20101;SDS011;10210;52.284;9.892;2024-03-22T10:45:41;21.10;;;11.40;;
20101;SDS011;10210;52.284;9.892;2024-03-22T10:48:10;24.67;;;11.43;;
20101;SDS011;10210;52.284;9.892;2024-03-22T10:50:44;22.23;;;12.20;;
20101;SDS011;10210;52.284;9.892;2024-03-22T10:53:12;20.73;;;11.37;;
20101;SDS011;10210;52.284;9.892;2024-03-22T10:55:46;21.60;;;11.10;;
20101;SDS011;10210;52.284;9.892;2024-03-22T10:58:15;19.17;;;10.90;;
20101;SDS011;10210;52.284;9.892;2024-03-22T11:00:51;23.37;;;12.23;;
20101;SDS011;10210;52.284;9.892;2024-03-22T11:03:20;20.50;;;11.13;;
20101;SDS011;10210;52.284;9.892;2024-03-22T11:05:48;21.50;;;11.23;;
20101;SDS011;10210;52.284;9.892;2024-03-22T11:08:28;20.27;;;11.37;;
20101;SDS011;10210;52.284;9.892;2024-03-22T11:10:57;21.83;;;11.23;;
20101;SDS011;10210;52.284;9.892;2024-03-22T11:13:35;22.37;;;10.70;;
20101;SDS011;10210;52.284;9.892;2024-03-22T11:16:01;19.43;;;10.47;;
20101;SDS011;10210;52.284;9.892;2024-03-22T11:18:28;22.17;;;11.70;;
20101;SDS011;10210;52.284;9.892;2024-03-22T11:20:54;20.80;;;11.57;;
20101;SDS011;10210;52.284;9.892;2024-03-22T11:23:20;21.13;;;10.87;;
20101;SDS011;10210;52.284;9.892;2024-03-22T11:25:46;21.30;;;11.27;;
20101;SDS011;10210;52.284;9.892;2024-03-22T11:28:12;22.37;;;12.60;;
20101;SDS011;10210;52.284;9.892;2024-03-22T11:30:38;20.33;;;11.50;;
20101;SDS011;10210;52.284;9.892;2024-03-22T11:33:06;21.10;;;11.67;;
20101;SDS011;10210;52.284;9.892;2024-03-22T11:35:33;22.13;;;12.13;;
20101;SDS011;10210;52.284;9.892;2024-03-22T11:37:59;22.70;;;12.10;;
20101;SDS011;10210;52.284;9.892;2024-03-22T11:40:26;21.33;;;12.07;;
20101;SDS011;10210;52.284;9.892;2024-03-22T11:42:53;25.60;;;12.90;;
20101;SDS011;10210;52.284;9.892;2024-03-22T11:45:20;20.13;;;11.27;;
20101;SDS011;10210;52.284;9.892;2024-03-22T11:47:49;20.23;;;11.80;;
20101;SDS011;10210;52.284;9.892;2024-03-22T11:50:15;21.00;;;12.20;;
20101;SDS011;10210;52.284;9.892;2024-03-22T11:52:42;24.07;;;12.90;;
20101;SDS011;10210;52.284;9.892;2024-03-22T11:55:11;22.17;;;12.60;;
20101;SDS011;10210;52.284;9.892;2024-03-22T11:57:38;20.93;;;11.93;;
20101;SDS011;10210;52.284;9.892;2024-03-22T12:00:04;21.83;;;12.17;;
20101;SDS011;10210;52.284;9.892;2024-03-22T12:02:35;18.77;;;10.90;;
20101;SDS011;10210;52.284;9.892;2024-03-22T12:05:01;22.00;;;12.23;;
20101;SDS011;10210;52.284;9.892;2024-03-22T12:07:29;22.90;;;11.80;;
20101;SDS011;10210;52.284;9.892;2024-03-22T12:09:55;21.77;;;12.07;;
20101;SDS011;10210;52.284;9.892;2024-03-22T12:12:21;21.10;;;12.27;;
20101;SDS011;10210;52.284;9.892;2024-03-22T12:14:48;21.23;;;11.17;;
20101;SDS011;10210;52.284;9.892;2024-03-22T12:17:16;21.50;;;12.93;;
20101;SDS011;10210;52.284;9.892;2024-03-22T12:19:42;21.37;;;13.03;;
20101;SDS011;10210;52.284;9.892;2024-03-22T12:22:08;22.87;;;13.10;;
20101;SDS011;10210;52.284;9.892;2024-03-22T12:24:35;23.17;;;13.03;;
20101;SDS011;10210;52.284;9.892;2024-03-22T12:27:02;24.27;;;12.97;;
20101;SDS011;10210;52.284;9.892;2024-03-22T12:29:28;23.00;;;14.10;;
20101;SDS011;10210;52.284;9.892;2024-03-22T12:31:54;22.53;;;13.00;;
20101;SDS011;10210;52.284;9.892;2024-03-22T12:34:20;24.10;;;14.50;;
20101;SDS011;10210;52.284;9.892;2024-03-22T12:36:46;21.53;;;12.53;;
20101;SDS011;10210;52.284;9.892;2024-03-22T12:39:12;27.20;;;13.97;;
20101;SDS011;10210;52.284;9.892;2024-03-22T12:41:38;23.50;;;13.03;;
20101;SDS011;10210;52.284;9.892;2024-03-22T12:44:06;23.90;;;14.40;;
20101;SDS011;10210;52.284;9.892;2024-03-22T12:46:32;23.33;;;13.27;;
20101;SDS011;10210;52.284;9.892;2024-03-22T12:48:58;24.77;;;14.87;;
20101;SDS011;10210;52.284;9.892;2024-03-22T12:51:24;24.13;;;14.07;;
20101;SDS011;10210;52.284;9.892;2024-03-22T12:53:50;24.50;;;15.07;;
20101;SDS011;10210;52.284;9.892;2024-03-22T12:56:17;25.03;;;15.20;;
20101;SDS011;10210;52.284;9.892;2024-03-22T12:58:43;27.20;;;15.80;;
20101;SDS011;10210;52.284;9.892;2024-03-22T13:01:09;24.83;;;15.57;;
20101;SDS011;10210;52.284;9.892;2024-03-22T13:03:36;26.97;;;15.90;;
20101;SDS011;10210;52.284;9.892;2024-03-22T13:06:03;27.33;;;16.87;;
20101;SDS011;10210;52.284;9.892;2024-03-22T13:08:30;24.87;;;16.23;;
20101;SDS011;10210;52.284;9.892;2024-03-22T13:10:56;25.93;;;15.97;;
20101;SDS011;10210;52.284;9.892;2024-03-22T13:13:23;26.20;;;16.87;;
20101;SDS011;10210;52.284;9.892;2024-03-22T13:15:49;24.03;;;15.50;;
20101;SDS011;10210;52.284;9.892;2024-03-22T13:18:15;26.40;;;15.50;;
20101;SDS011;10210;52.284;9.892;2024-03-22T13:20:41;23.87;;;14.90;;
20101;SDS011;10210;52.284;9.892;2024-03-22T13:23:07;24.10;;;14.43;;
20101;SDS011;10210;52.284;9.892;2024-03-22T13:25:36;25.63;;;16.30;;
20101;SDS011;10210;52.284;9.892;2024-03-22T13:28:03;24.90;;;15.03;;
20101;SDS011;10210;52.284;9.892;2024-03-22T13:30:30;25.70;;;15.70;;
20101;SDS011;10210;52.284;9.892;2024-03-22T13:32:56;23.20;;;14.87;;
20101;SDS011;10210;52.284;9.892;2024-03-22T13:35:24;25.67;;;15.23;;
20101;SDS011;10210;52.284;9.892;2024-03-22T13:37:50;25.17;;;15.93;;
20101;SDS011;10210;52.284;9.892;2024-03-22T13:40:16;25.33;;;15.20;;
20101;SDS011;10210;52.284;9.892;2024-03-22T13:42:42;24.37;;;15.23;;
20101;SDS011;10210;52.284;9.892;2024-03-22T13:45:08;24.40;;;15.10;;
20101;SDS011;10210;52.284;9.892;2024-03-22T13:47:34;24.40;;;15.10;;
20101;SDS011;10210;52.284;9.892;2024-03-22T13:50:03;25.90;;;15.43;;
20101;SDS011;10210;52.284;9.892;2024-03-22T13:52:29;24.77;;;15.67;;
20101;SDS011;10210;52.284;9.892;2024-03-22T13:54:56;27.90;;;16.17;;
20101;SDS011;10210;52.284;9.892;2024-03-22T13:57:24;23.50;;;14.53;;
20101;SDS011;10210;52.284;9.892;2024-03-22T13:59:51;23.63;;;15.00;;
20101;SDS011;10210;52.284;9.892;2024-03-22T14:02:17;25.60;;;16.63;;
20101;SDS011;10210;52.284;9.892;2024-03-22T14:04:43;27.13;;;16.67;;
20101;SDS011;10210;52.284;9.892;2024-03-22T14:07:09;24.47;;;15.50;;
20101;SDS011;10210;52.284;9.892;2024-03-22T14:09:35;23.77;;;15.60;;
20101;SDS011;10210;52.284;9.892;2024-03-22T14:12:02;26.50;;;16.03;;
20101;SDS011;10210;52.284;9.892;2024-03-22T14:14:29;26.27;;;15.73;;
20101;SDS011;10210;52.284;9.892;2024-03-22T14:16:55;27.60;;;17.60;;
20101;SDS011;10210;52.284;9.892;2024-03-22T14:19:21;26.30;;;17.33;;
20101;SDS011;10210;52.284;9.892;2024-03-22T14:21:47;26.70;;;16.57;;